createdAt,value
2018-12-23T00:01:18.833Z,11.20
2018-12-23T00:03:46.651Z,11.10
2018-12-23T00:06:14.157Z,11.10
2018-12-23T00:08:41.697Z,11.20
2018-12-23T00:11:09.641Z,11.10
2018-12-23T00:13:38.276Z,11.10
2018-12-23T00:16:05.815Z,11.10
2018-12-23T00:18:33.624Z,11.10
2018-12-23T00:21:01.241Z,11.10
2018-12-23T00:23:29.388Z,11.10
2018-12-23T00:25:56.952Z,11.10
2018-12-23T00:28:24.537Z,11.10
2018-12-23T00:30:52.072Z,11.10
2018-12-23T00:33:19.621Z,11.10
2018-12-23T00:35:47.810Z,11.10
2018-12-23T00:38:15.330Z,11.20
2018-12-23T00:40:42.894Z,11.20
2018-12-23T00:43:10.413Z,11.30
2018-12-23T00:45:37.958Z,11.10
2018-12-23T00:48:05.458Z,11.20
2018-12-23T00:50:32.998Z,11.20
2018-12-23T00:53:00.545Z,11.20
2018-12-23T00:55:28.153Z,11.10
2018-12-23T00:57:55.694Z,11.10
2018-12-23T01:00:23.289Z,11.10
2018-12-23T01:02:51.740Z,11.10
2018-12-23T01:05:19.272Z,11.10
2018-12-23T01:07:46.833Z,11.10
2018-12-23T01:10:14.397Z,11.10
2018-12-23T01:12:41.930Z,11.20
2018-12-23T01:15:09.537Z,11.10
2018-12-23T01:17:37.097Z,11.10
2018-12-23T01:20:06.485Z,11.00
2018-12-23T01:22:34.044Z,11.00
2018-12-23T01:25:01.557Z,11.00
2018-12-23T01:27:29.137Z,11.00
2018-12-23T01:29:56.783Z,11.00
2018-12-23T01:32:24.302Z,11.00
2018-12-23T01:34:51.877Z,11.00
2018-12-23T01:37:19.407Z,11.10
2018-12-23T01:39:46.963Z,11.10
2018-12-23T01:42:15.148Z,11.10
2018-12-23T01:44:42.685Z,11.10
2018-12-23T01:47:10.296Z,11.00
2018-12-23T01:49:37.829Z,11.00
2018-12-23T01:52:05.588Z,11.00
2018-12-23T01:54:33.381Z,11.00
2018-12-23T01:57:00.933Z,10.90
2018-12-23T01:59:28.433Z,10.80
2018-12-23T02:01:55.986Z,10.80
2018-12-23T02:04:23.674Z,10.80
2018-12-23T02:06:51.230Z,10.70
2018-12-23T02:09:18.770Z,10.70
2018-12-23T02:11:46.336Z,10.70
2018-12-23T02:14:13.862Z,10.70
2018-12-23T02:16:41.412Z,10.60
2018-12-23T02:19:08.964Z,10.70
2018-12-23T02:21:36.489Z,10.80
2018-12-23T02:24:04.108Z,10.80
2018-12-23T02:26:31.667Z,10.80
2018-12-23T02:28:59.742Z,10.80
2018-12-23T02:31:27.301Z,10.70
2018-12-23T02:33:55.064Z,10.70
2018-12-23T02:36:24.923Z,10.70
2018-12-23T02:38:52.457Z,10.70
2018-12-23T02:41:19.998Z,10.70
2018-12-23T02:43:47.575Z,10.70
2018-12-23T02:46:15.091Z,10.70
2018-12-23T02:48:42.628Z,10.70
2018-12-23T02:51:10.189Z,10.80
2018-12-23T02:53:41.834Z,10.80
2018-12-23T02:56:09.478Z,10.80
2018-12-23T02:58:37.036Z,10.80
2018-12-23T03:01:04.688Z,10.90
2018-12-23T03:03:32.308Z,10.80
2018-12-23T03:06:05.647Z,10.70
2018-12-23T03:08:29.403Z,10.70
2018-12-23T03:10:57.038Z,10.80
2018-12-23T03:13:24.563Z,10.70
2018-12-23T03:15:52.148Z,10.70
2018-12-23T03:18:19.831Z,10.80
2018-12-23T03:20:47.427Z,10.90
2018-12-23T03:23:14.934Z,10.90
2018-12-23T03:25:42.516Z,10.80
2018-12-23T03:28:10.084Z,10.90
2018-12-23T03:30:37.858Z,10.80
2018-12-23T03:33:05.458Z,10.80
2018-12-23T03:35:32.991Z,10.80
2018-12-23T03:38:00.530Z,10.80
2018-12-23T03:40:28.265Z,10.80
2018-12-23T03:42:55.948Z,10.80
2018-12-23T03:45:23.509Z,10.80
2018-12-23T03:47:51.289Z,10.70
2018-12-23T03:50:18.826Z,10.80
2018-12-23T03:52:46.371Z,10.80
2018-12-23T03:55:13.944Z,10.80
2018-12-23T03:57:41.485Z,10.80
2018-12-23T04:00:09.018Z,10.80
2018-12-23T04:02:36.572Z,10.70
2018-12-23T04:05:04.640Z,10.80
2018-12-23T04:07:32.193Z,10.70
2018-12-23T04:09:59.719Z,10.70
2018-12-23T04:12:27.261Z,10.70
2018-12-23T04:14:55.136Z,10.80
2018-12-23T04:17:23.669Z,10.80
2018-12-23T04:19:51.242Z,10.80
2018-12-23T04:22:18.759Z,10.80
2018-12-23T04:24:46.289Z,10.80
2018-12-23T04:27:13.866Z,10.90
2018-12-23T04:29:41.369Z,10.90
2018-12-23T04:32:08.914Z,10.90
2018-12-23T04:34:36.470Z,10.90
2018-12-23T04:37:04.230Z,10.90
2018-12-23T04:39:31.760Z,11.00
2018-12-23T04:41:59.318Z,11.00
2018-12-23T04:44:27.449Z,11.00
2018-12-23T04:46:55.138Z,11.00
2018-12-23T04:49:22.677Z,11.00
2018-12-23T04:51:50.529Z,11.10
2018-12-23T04:54:18.051Z,11.10
2018-12-23T04:56:45.713Z,11.10
2018-12-23T04:59:13.223Z,11.10
2018-12-23T05:01:40.762Z,11.10
2018-12-23T05:04:08.345Z,11.00
2018-12-23T05:06:43.256Z,11.10
2018-12-23T05:09:05.668Z,11.00
2018-12-23T05:11:33.186Z,11.00
2018-12-23T05:14:00.757Z,11.00
2018-12-23T05:16:28.276Z,11.00
2018-12-23T05:18:55.878Z,11.10
2018-12-23T05:21:23.395Z,11.10
2018-12-23T05:23:50.932Z,11.10
2018-12-23T05:26:18.820Z,11.10
2018-12-23T05:28:46.438Z,11.10
2018-12-23T05:31:13.997Z,11.20
2018-12-23T05:33:41.583Z,11.10
2018-12-23T05:36:09.243Z,11.10
2018-12-23T05:38:37.374Z,11.10
2018-12-23T05:41:04.922Z,11.10
2018-12-23T05:43:32.432Z,11.10
2018-12-23T05:45:59.996Z,11.10
2018-12-23T05:48:27.509Z,11.10
2018-12-23T05:50:55.057Z,11.10
2018-12-23T05:53:22.568Z,11.10
2018-12-23T05:55:49.794Z,11.00
2018-12-23T05:58:17.330Z,11.10
2018-12-23T06:00:44.898Z,11.10
2018-12-23T06:03:12.430Z,11.10
2018-12-23T06:05:39.982Z,11.10
2018-12-23T06:08:07.520Z,11.10
2018-12-23T06:10:35.030Z,11.10
2018-12-23T06:13:02.648Z,11.10
2018-12-23T06:15:30.208Z,11.00
2018-12-23T06:17:57.783Z,11.00
2018-12-23T06:20:25.663Z,11.00
2018-12-23T06:22:54.123Z,11.00
2018-12-23T06:25:21.707Z,11.00
2018-12-23T06:27:49.342Z,11.00
2018-12-23T06:30:16.871Z,11.00
2018-12-23T06:32:44.466Z,11.00
2018-12-23T06:35:12.006Z,11.00
2018-12-23T06:37:39.537Z,11.00
2018-12-23T06:40:07.193Z,11.00
2018-12-23T06:42:34.889Z,11.00
2018-12-23T06:45:02.596Z,11.10
2018-12-23T06:47:30.112Z,11.10
2018-12-23T06:49:57.683Z,11.10
2018-12-23T06:52:25.205Z,11.10
2018-12-23T06:54:52.742Z,11.10
2018-12-23T06:57:20.363Z,11.10
2018-12-23T06:59:47.890Z,11.00
2018-12-23T07:02:16.483Z,11.00
2018-12-23T07:04:44.058Z,11.00
2018-12-23T07:07:18.569Z,10.90
2018-12-23T07:09:41.159Z,10.90
2018-12-23T07:12:08.731Z,11.10
2018-12-23T07:14:36.233Z,11.10
2018-12-23T07:17:04.023Z,11.10
2018-12-23T07:19:31.575Z,11.10
2018-12-23T07:21:59.209Z,11.10
2018-12-23T07:24:26.770Z,11.20
2018-12-23T07:26:54.369Z,11.20
2018-12-23T07:29:21.922Z,11.10
2018-12-23T07:31:49.465Z,11.10
2018-12-23T07:34:17.000Z,11.10
2018-12-23T07:36:49.491Z,11.10
2018-12-23T07:39:14.073Z,11.10
2018-12-23T07:41:41.690Z,11.10
2018-12-23T07:44:09.226Z,11.10
2018-12-23T07:46:36.800Z,11.00
2018-12-23T07:49:05.336Z,11.00
2018-12-23T07:51:32.849Z,11.10
2018-12-23T07:54:00.435Z,11.10
2018-12-23T07:56:27.977Z,11.10
2018-12-23T07:58:55.574Z,11.20
2018-12-23T08:01:23.117Z,11.20
2018-12-23T08:03:50.667Z,11.10
2018-12-23T08:06:18.305Z,11.10
2018-12-23T08:08:45.818Z,11.10
2018-12-23T08:11:13.374Z,11.20
2018-12-23T08:13:40.894Z,11.10
2018-12-23T08:16:10.485Z,11.10
2018-12-23T08:18:38.002Z,11.10
2018-12-23T08:21:05.545Z,11.10
2018-12-23T08:23:33.058Z,11.10
2018-12-23T08:26:00.568Z,11.20
2018-12-23T08:28:28.127Z,11.10
2018-12-23T08:30:55.652Z,11.10
2018-12-23T08:33:23.218Z,11.20
2018-12-23T08:35:50.817Z,11.20
2018-12-23T08:38:18.414Z,11.10
2018-12-23T08:40:45.971Z,11.10
2018-12-23T08:43:13.529Z,11.20
2018-12-23T08:45:41.085Z,11.30
2018-12-23T08:48:08.848Z,11.30
2018-12-23T08:50:37.296Z,11.30
2018-12-23T08:53:04.859Z,11.30
2018-12-23T08:55:32.391Z,11.30
2018-12-23T08:57:59.951Z,11.30
2018-12-23T09:00:27.489Z,11.30
2018-12-23T09:02:54.996Z,11.40
2018-12-23T09:05:22.546Z,11.40
2018-12-23T09:07:53.165Z,11.40
2018-12-23T09:10:19.665Z,11.40
2018-12-23T09:12:47.189Z,11.40
2018-12-23T09:15:14.740Z,11.40
2018-12-23T09:17:42.257Z,11.40
2018-12-23T09:20:09.818Z,11.40
2018-12-23T09:22:37.529Z,11.40
2018-12-23T09:25:05.060Z,11.50
2018-12-23T09:27:32.908Z,11.50
2018-12-23T09:30:00.443Z,11.50
2018-12-23T09:32:28.013Z,11.50
2018-12-23T09:34:55.569Z,11.50
2018-12-23T09:37:23.199Z,11.50
2018-12-23T09:39:50.765Z,11.50
2018-12-23T09:42:18.322Z,11.50
2018-12-23T09:44:45.903Z,11.50
2018-12-23T09:47:13.465Z,11.50
2018-12-23T09:49:41.127Z,11.60
2018-12-23T09:52:08.904Z,11.60
2018-12-23T09:54:36.577Z,11.60
2018-12-23T09:57:04.134Z,11.60
2018-12-23T09:59:31.654Z,11.70
2018-12-23T10:01:59.197Z,11.60
2018-12-23T10:04:26.707Z,11.70
2018-12-23T10:06:54.233Z,11.70
2018-12-23T10:09:21.777Z,11.70
2018-12-23T10:11:49.299Z,11.80
2018-12-23T10:14:16.836Z,11.80
2018-12-23T10:16:44.496Z,11.80
2018-12-23T10:19:12.004Z,11.90
2018-12-23T10:21:39.573Z,11.90
2018-12-23T10:24:07.130Z,11.90
2018-12-23T10:26:34.677Z,11.90
2018-12-23T10:29:03.518Z,11.90
2018-12-23T10:31:31.067Z,12.00
2018-12-23T10:33:58.586Z,12.00
2018-12-23T10:36:26.197Z,12.00
2018-12-23T10:38:53.869Z,12.00
2018-12-23T10:41:21.422Z,12.10
2018-12-23T10:43:48.967Z,12.10
2018-12-23T10:46:16.517Z,12.10
2018-12-23T10:48:44.305Z,12.10
2018-12-23T10:51:11.861Z,12.20
2018-12-23T10:53:39.389Z,12.20
2018-12-23T10:56:06.987Z,12.20
2018-12-23T10:58:35.214Z,12.20
2018-12-23T11:01:02.797Z,12.20
2018-12-23T11:03:31.137Z,12.30
2018-12-23T11:05:58.666Z,12.30
2018-12-23T11:08:27.100Z,12.30
2018-12-23T11:11:45.134Z,12.30
2018-12-23T11:14:13.843Z,12.30
2018-12-23T11:16:42.580Z,12.30
2018-12-23T11:19:11.274Z,12.30
2018-12-23T11:21:40.117Z,12.30
2018-12-23T11:24:08.794Z,12.40
2018-12-23T11:26:37.463Z,12.40
2018-12-23T11:29:06.219Z,12.40
2018-12-23T11:31:34.880Z,12.40
2018-12-23T11:34:03.595Z,12.40
2018-12-23T11:36:32.314Z,12.40
2018-12-23T11:39:01.014Z,12.40
2018-12-23T11:41:29.709Z,12.40
2018-12-23T11:43:58.417Z,12.40
2018-12-23T11:46:27.182Z,12.40
2018-12-23T11:48:55.847Z,12.40
2018-12-23T11:51:24.557Z,12.40
2018-12-23T11:53:53.325Z,12.40
2018-12-23T11:56:21.986Z,12.40
2018-12-23T11:58:50.707Z,12.50
2018-12-23T12:01:19.990Z,12.50
2018-12-23T12:03:48.706Z,12.50
2018-12-23T12:06:17.504Z,12.40
2018-12-23T12:08:46.209Z,12.40
2018-12-23T12:11:15.018Z,12.50
2018-12-23T12:13:43.784Z,12.40
2018-12-23T12:16:12.486Z,12.40
2018-12-23T12:18:41.175Z,12.40
2018-12-23T12:21:09.895Z,12.30
2018-12-23T12:23:38.559Z,12.30
2018-12-23T12:26:07.539Z,12.40
2018-12-23T12:28:36.192Z,12.30
2018-12-23T12:31:04.942Z,12.30
2018-12-23T12:33:33.621Z,12.20
2018-12-23T12:36:02.324Z,12.20
2018-12-23T12:38:31.015Z,12.30
2018-12-23T12:40:59.727Z,12.20
2018-12-23T12:43:28.638Z,12.20
2018-12-23T12:46:00.672Z,12.10
2018-12-23T12:48:27.732Z,12.10
2018-12-23T12:50:56.417Z,12.10
2018-12-23T12:53:25.072Z,12.10
2018-12-23T12:55:53.895Z,12.20
2018-12-23T12:58:22.610Z,12.10
2018-12-23T13:00:51.304Z,12.20
2018-12-23T13:03:19.960Z,12.10
2018-12-23T13:05:48.607Z,12.00
2018-12-23T13:08:17.399Z,12.00
2018-12-23T13:10:46.084Z,12.00
2018-12-23T13:13:14.746Z,12.00
2018-12-23T13:15:43.428Z,12.00
2018-12-23T13:18:12.106Z,12.00
2018-12-23T13:20:41.018Z,12.00
2018-12-23T13:23:09.689Z,11.90
2018-12-23T13:25:38.311Z,11.90
2018-12-23T13:28:07.180Z,11.90
2018-12-23T13:30:35.853Z,11.80
2018-12-23T13:33:04.676Z,11.90
2018-12-23T13:35:33.437Z,11.80
2018-12-23T13:38:02.114Z,11.70
2018-12-23T13:40:33.856Z,11.70
2018-12-23T13:43:11.197Z,11.70
2018-12-23T13:45:59.271Z,11.80
2018-12-23T13:48:33.706Z,11.70
2018-12-23T13:51:29.621Z,11.60
2018-12-23T13:54:16.576Z,11.60
2018-12-23T13:57:10.911Z,11.60
2018-12-23T13:59:57.883Z,11.50
2018-12-23T14:02:45.981Z,11.50
2018-12-23T14:05:20.930Z,11.50
2018-12-23T14:08:04.743Z,11.50
2018-12-23T14:10:36.451Z,11.50
2018-12-23T14:13:05.237Z,11.50
2018-12-23T14:15:34.003Z,11.50
2018-12-23T14:18:02.691Z,11.50
2018-12-23T14:20:31.586Z,11.60
2018-12-23T14:23:00.296Z,11.60
2018-12-23T14:25:28.962Z,11.60
2018-12-23T14:27:57.647Z,11.60
2018-12-23T14:30:26.422Z,11.50
2018-12-23T14:32:55.218Z,11.50
2018-12-23T14:35:24.279Z,11.50
2018-12-23T14:37:52.991Z,11.60
2018-12-23T14:40:21.644Z,11.50
2018-12-23T14:42:50.329Z,11.50
2018-12-23T14:45:19.050Z,11.40
2018-12-23T14:47:47.770Z,11.40
2018-12-23T14:50:16.590Z,11.40
2018-12-23T14:52:45.250Z,11.40
2018-12-23T14:55:14.311Z,11.50
2018-12-23T14:57:42.955Z,11.50
2018-12-23T15:00:31.056Z,11.50
2018-12-23T15:02:59.831Z,11.40
2018-12-23T15:05:28.485Z,11.40
2018-12-23T15:07:57.223Z,11.40
2018-12-23T15:10:25.951Z,11.40
2018-12-23T15:12:54.610Z,11.50
2018-12-23T15:15:23.306Z,11.40
2018-12-23T15:17:52.050Z,11.40
2018-12-23T15:20:20.763Z,11.30
2018-12-23T15:22:50.694Z,11.30
2018-12-23T15:25:19.348Z,11.20
2018-12-23T15:27:48.063Z,11.20
2018-12-23T15:30:16.883Z,11.10
2018-12-23T15:32:45.669Z,11.20
2018-12-23T15:35:14.563Z,11.20
2018-12-23T15:37:43.279Z,11.20
2018-12-23T15:40:13.496Z,11.20
2018-12-23T15:42:42.309Z,9.60
2018-12-23T15:45:11.129Z,11.20
2018-12-23T15:47:40.148Z,11.20
2018-12-23T15:50:08.983Z,11.20
2018-12-23T15:52:37.696Z,11.20
2018-12-23T15:55:06.630Z,11.10
2018-12-23T15:57:35.411Z,11.10
2018-12-23T16:00:05.456Z,11.10
2018-12-23T16:02:39.992Z,11.00
2018-12-23T16:05:08.760Z,11.00
2018-12-23T16:07:37.455Z,10.90
2018-12-23T16:10:08.203Z,11.00
2018-12-23T16:12:36.871Z,10.90
2018-12-23T16:15:06.006Z,10.90
2018-12-23T16:17:34.834Z,11.00
2018-12-23T16:20:04.345Z,11.00
2018-12-23T16:22:33.184Z,11.00
2018-12-23T16:25:01.874Z,11.00
2018-12-23T16:27:30.678Z,11.00
2018-12-23T16:29:59.438Z,10.90
2018-12-23T16:32:28.103Z,11.00
2018-12-23T16:34:56.916Z,11.00
2018-12-23T16:37:25.642Z,10.80
2018-12-23T16:39:59.521Z,10.90
2018-12-23T16:42:24.731Z,10.90
2018-12-23T16:44:53.422Z,10.80
2018-12-23T16:47:22.238Z,10.90
2018-12-23T16:49:50.934Z,10.90
2018-12-23T16:52:19.842Z,10.90
2018-12-23T16:54:48.505Z,10.80
2018-12-23T16:57:17.363Z,10.80
2018-12-23T16:59:46.082Z,10.80
2018-12-23T17:02:14.790Z,10.90
2018-12-23T17:04:43.587Z,10.90
2018-12-23T17:07:12.314Z,10.90
2018-12-23T17:09:41.154Z,10.90
2018-12-23T17:12:09.823Z,10.90
2018-12-23T17:14:38.536Z,10.90
2018-12-23T17:17:07.215Z,10.90
2018-12-23T17:19:35.914Z,10.90
2018-12-23T17:22:04.693Z,10.90
2018-12-23T17:24:33.385Z,10.90
2018-12-23T17:27:02.522Z,10.80
2018-12-23T17:29:31.170Z,10.80
2018-12-23T17:32:00.034Z,10.90
2018-12-23T17:34:28.766Z,10.90
2018-12-23T17:36:57.578Z,11.00
2018-12-23T17:39:26.368Z,11.00
2018-12-23T17:41:55.042Z,11.00
2018-12-23T17:44:23.738Z,11.10
2018-12-23T17:46:53.122Z,11.10
2018-12-23T17:49:21.947Z,11.10
2018-12-23T17:51:50.978Z,11.10
2018-12-23T17:54:19.783Z,11.10
2018-12-23T17:56:48.507Z,11.20
2018-12-23T17:59:17.138Z,11.20
2018-12-23T18:01:45.994Z,11.20
2018-12-23T18:04:14.654Z,11.30
2018-12-23T18:06:43.573Z,11.30
2018-12-23T18:09:12.233Z,11.30
2018-12-23T18:11:40.931Z,11.40
2018-12-23T18:14:09.722Z,11.40
2018-12-23T18:16:38.440Z,11.50
2018-12-23T18:19:07.128Z,11.60
2018-12-23T18:21:35.814Z,11.60
2018-12-23T18:24:04.571Z,11.70
2018-12-23T18:26:33.291Z,11.70
2018-12-23T18:29:02.261Z,11.70
2018-12-23T18:31:30.970Z,11.80
2018-12-23T18:33:59.659Z,11.80
2018-12-23T18:36:28.373Z,11.90
2018-12-23T18:38:57.157Z,11.90
2018-12-23T18:41:25.949Z,11.90
2018-12-23T18:43:54.983Z,11.90
2018-12-23T18:46:23.734Z,11.90
2018-12-23T18:48:52.438Z,11.90
2018-12-23T18:51:21.106Z,12.00
2018-12-23T18:53:49.842Z,12.00
2018-12-23T18:56:18.798Z,12.00
2018-12-23T18:58:47.509Z,12.10
2018-12-23T19:01:16.599Z,12.10
2018-12-23T19:03:45.254Z,12.10
2018-12-23T19:06:13.940Z,12.20
2018-12-23T19:08:46.099Z,12.20
2018-12-23T19:11:32.763Z,12.20
2018-12-23T19:14:24.143Z,12.30
2018-12-23T19:17:10.939Z,12.20
2018-12-23T19:20:01.189Z,12.20
2018-12-23T19:22:38.828Z,12.20
2018-12-23T19:25:19.741Z,12.20
2018-12-23T19:28:14.848Z,12.20
2018-12-23T19:30:55.424Z,12.20
2018-12-23T19:33:30.154Z,12.20
2018-12-23T19:36:13.931Z,12.20
2018-12-23T19:38:45.930Z,12.20
2018-12-23T19:41:38.233Z,12.20
2018-12-23T19:44:15.278Z,12.30
2018-12-23T19:47:13.190Z,12.30
2018-12-23T19:49:51.583Z,12.20
2018-12-23T19:52:26.443Z,12.20
2018-12-23T19:55:16.377Z,12.30
2018-12-23T19:57:53.870Z,12.30
2018-12-23T20:00:37.641Z,12.30
2018-12-23T20:03:39.445Z,12.30
2018-12-23T20:06:32.150Z,12.30
2018-12-23T20:09:18.746Z,12.20
2018-12-23T20:12:10.058Z,12.20
2018-12-23T20:14:53.647Z,12.30
2018-12-23T20:17:45.034Z,12.30
2018-12-23T20:20:36.417Z,12.30
2018-12-23T20:23:38.313Z,12.30
2018-12-23T20:26:38.834Z,12.30
2018-12-23T20:29:13.408Z,12.30
2018-12-23T20:31:45.185Z,12.30
2018-12-23T20:34:22.863Z,12.40
2018-12-23T20:37:06.806Z,12.40
2018-12-23T20:39:50.704Z,12.40
2018-12-23T20:42:37.170Z,12.40
2018-12-23T20:45:40.893Z,12.40
2018-12-23T20:48:27.842Z,12.40
2018-12-23T20:51:22.302Z,12.40
2018-12-23T20:54:02.943Z,12.40
2018-12-23T20:56:37.395Z,12.40
2018-12-23T20:59:24.290Z,12.50
2018-12-23T21:02:21.691Z,12.50
2018-12-23T21:04:56.106Z,12.50
2018-12-23T21:07:42.825Z,12.40
2018-12-23T21:10:30.833Z,12.50
2018-12-23T21:13:11.310Z,12.50
2018-12-23T21:15:58.244Z,12.50
2018-12-23T21:18:52.786Z,12.60
2018-12-23T21:21:33.163Z,12.60
2018-12-23T21:24:27.457Z,12.60
2018-12-23T21:27:14.141Z,12.60
2018-12-23T21:30:13.055Z,12.50
2018-12-23T21:32:56.737Z,12.60
2018-12-23T21:35:30.940Z,12.60
2018-12-23T21:38:20.894Z,12.50
2018-12-23T21:41:10.972Z,12.60
2018-12-23T21:43:45.713Z,12.70
2018-12-23T21:46:20.370Z,12.70
2018-12-23T21:48:58.046Z,12.70
2018-12-23T21:51:38.923Z,12.80
2018-12-23T21:54:16.466Z,12.70
2018-12-23T21:57:21.623Z,12.80
2018-12-23T21:59:59.051Z,12.80
2018-12-23T22:02:57.843Z,12.80
2018-12-23T22:05:44.535Z,12.80
2018-12-23T22:08:34.320Z,12.90
2018-12-23T22:11:24.135Z,12.80
2018-12-23T22:13:52.856Z,12.80
2018-12-23T22:16:21.575Z,12.90
2018-12-23T22:18:50.349Z,12.90
2018-12-23T22:21:19.006Z,13.00
2018-12-23T22:23:48.103Z,13.00
2018-12-23T22:26:16.801Z,13.10
2018-12-23T22:28:45.663Z,13.00
2018-12-23T22:31:14.443Z,13.10
2018-12-23T22:33:43.239Z,13.10
2018-12-23T22:36:15.202Z,13.10
2018-12-23T22:38:43.890Z,13.10
2018-12-23T22:41:12.671Z,13.10
2018-12-23T22:43:41.322Z,13.10
2018-12-23T22:46:10.018Z,13.10
2018-12-23T22:48:38.886Z,13.10
2018-12-23T22:51:07.594Z,13.00
2018-12-23T22:53:36.238Z,13.10
2018-12-23T22:56:04.909Z,13.10
2018-12-23T22:58:33.586Z,13.10
2018-12-23T23:01:02.338Z,13.00
2018-12-23T23:03:31.185Z,13.00
2018-12-23T23:05:59.925Z,13.00
2018-12-23T23:08:28.620Z,13.00
2018-12-23T23:10:57.346Z,13.00
2018-12-23T23:13:26.007Z,12.90
2018-12-23T23:15:54.741Z,13.00
2018-12-23T23:18:23.918Z,13.00
2018-12-23T23:20:52.681Z,13.00
2018-12-23T23:23:21.383Z,13.00
2018-12-23T23:25:50.210Z,13.00
2018-12-23T23:28:18.918Z,13.00
2018-12-23T23:30:47.602Z,13.00
2018-12-23T23:33:16.295Z,13.00
2018-12-23T23:35:45.340Z,13.00
2018-12-23T23:38:14.002Z,13.00
2018-12-23T23:40:42.688Z,13.10
2018-12-23T23:43:11.346Z,13.10
2018-12-23T23:45:40.028Z,13.00
2018-12-23T23:48:08.722Z,13.00
2018-12-23T23:50:37.686Z,13.00
2018-12-23T23:53:06.595Z,13.00
2018-12-23T23:55:35.291Z,13.10
2018-12-23T23:58:03.951Z,13.10
